Time;durP1;ratioP1;P1;durP2;ratioP2;P2;SDS_P1;SDS_P2;PMS_P1;PMS_P2;Temp;Humidity;BMP_temperature;BMP_pressure;BME280_temperature;BME280_humidity;BME280_pressure;Samples;Min_cycle;Max_cycle;Signal;HPM_P1;HPM_P2
2023/12/04 00:01:11;;;;;;;13.83;10.70;;;;;;;-5.07;100.00;101034.25;5109947;28;20040;-65
2023/12/04 00:03:37;;;;;;;14.33;9.17;;;;;;;-5.14;100.00;101019.81;5111045;28;20054;-66
2023/12/04 00:06:03;;;;;;;16.90;10.60;;;;;;;-5.12;100.00;101026.63;5111324;28;20040;-66
2023/12/04 00:08:29;;;;;;;13.30;8.97;;;;;;;-5.09;100.00;101038.66;5111465;28;20046;-66
2023/12/04 00:10:54;;;;;;;14.30;9.20;;;;;;;-5.24;100.00;101010.66;5111308;28;20085;-65
2023/12/04 00:13:20;;;;;;;11.93;8.07;;;;;;;-5.27;100.00;101010.75;5111712;28;20038;-64
2023/12/04 00:15:46;;;;;;;11.43;8.40;;;;;;;-5.25;100.00;101020.19;5114198;28;20115;-68
2023/12/04 00:18:12;;;;;;;17.13;10.87;;;;;;;-5.28;100.00;101025.50;5115042;28;20039;-65
2023/12/04 00:20:37;;;;;;;15.65;10.35;;;;;;;-5.31;100.00;101023.00;5113415;28;20398;-66
2023/12/04 00:23:03;;;;;;;13.17;10.37;;;;;;;-5.23;100.00;101033.09;5114086;28;20035;-66
2023/12/04 00:25:28;;;;;;;13.47;9.30;;;;;;;-5.31;100.00;101005.69;5114875;28;20031;-64
2023/12/04 00:27:54;;;;;;;12.60;8.67;;;;;;;-5.32;100.00;100998.81;5114971;28;20036;-65
2023/12/04 00:30:19;;;;;;;13.63;8.53;;;;;;;-5.17;100.00;101017.34;5114746;28;20081;-66
2023/12/04 00:32:45;;;;;;;12.70;8.07;;;;;;;-5.45;100.00;100991.53;5114663;28;20029;-65
2023/12/04 00:35:11;;;;;;;12.90;8.47;;;;;;;-5.40;100.00;101029.38;5114549;27;20066;-64
2023/12/04 00:37:38;;;;;;;13.07;10.23;;;;;;;-5.54;100.00;101034.22;5115015;27;20171;-66
2023/12/04 00:40:05;;;;;;;14.50;9.60;;;;;;;-5.59;100.00;101036.13;5115330;28;20088;-64
2023/12/04 00:42:31;;;;;;;15.05;9.07;;;;;;;-5.57;100.00;101036.06;5114453;28;20063;-65
2023/12/04 00:44:56;;;;;;;12.60;8.80;;;;;;;-5.73;100.00;101010.66;5114851;28;20431;-65
2023/12/04 00:47:22;;;;;;;12.73;9.07;;;;;;;-5.55;100.00;101005.72;5114934;28;20036;-64
2023/12/04 00:49:47;;;;;;;14.20;8.83;;;;;;;-5.38;100.00;101037.97;5114257;28;20127;-65
2023/12/04 00:52:13;;;;;;;17.83;9.27;;;;;;;-5.43;100.00;101047.69;5115272;28;20056;-65
2023/12/04 00:54:40;;;;;;;17.40;9.37;;;;;;;-5.63;100.00;101026.75;5113363;28;20063;-65
2023/12/04 00:57:06;;;;;;;13.43;9.13;;;;;;;-5.61;100.00;101027.56;5114293;28;20066;-65
2023/12/04 00:59:32;;;;;;;14.37;9.10;;;;;;;-5.36;100.00;101048.28;5114386;28;20494;-64
2023/12/04 01:01:57;;;;;;;16.03;9.67;;;;;;;-5.33;100.00;101023.06;5114117;27;20039;-65
2023/12/04 01:04:23;;;;;;;13.50;8.77;;;;;;;-5.10;100.00;101044.75;5114593;28;20056;-65
2023/12/04 01:06:49;;;;;;;17.85;10.65;;;;;;;-5.14;100.00;101041.44;5114473;28;20069;-65
2023/12/04 01:09:15;;;;;;;15.27;9.53;;;;;;;-5.28;100.00;101032.44;5114118;28;20039;-64
2023/12/04 01:11:40;;;;;;;20.17;10.20;;;;;;;-5.25;100.00;101040.94;5114014;28;20031;-64
2023/12/04 01:14:06;;;;;;;16.43;8.87;;;;;;;-5.35;100.00;101009.31;5113954;28;20031;-66
2023/12/04 01:16:32;;;;;;;16.07;9.17;;;;;;;-5.14;100.00;101038.00;5113879;28;20494;-66
2023/12/04 01:18:57;;;;;;;15.63;9.37;;;;;;;-5.24;100.00;101000.25;5113632;28;20164;-66
2023/12/04 01:21:23;;;;;;;14.17;9.77;;;;;;;-5.11;100.00;101023.13;5113845;28;20039;-67
2023/12/04 01:23:48;;;;;;;11.80;9.00;;;;;;;-5.10;100.00;101029.19;5113871;28;20038;-66
2023/12/04 01:26:14;;;;;;;14.20;9.57;;;;;;;-5.21;100.00;101002.75;5113516;28;20034;-65
2023/12/04 01:28:39;;;;;;;13.83;8.47;;;;;;;-4.96;100.00;101034.69;5112540;28;20045;-65
2023/12/04 01:31:06;;;;;;;12.67;9.40;;;;;;;-5.28;100.00;100983.97;5113654;28;20122;-65
2023/12/04 01:33:31;;;;;;;16.17;10.30;;;;;;;-5.06;100.00;101013.41;5112558;28;20023;-67
2023/12/04 01:35:57;;;;;;;15.57;9.63;;;;;;;-4.90;100.00;101037.06;5113658;28;20087;-65
2023/12/04 01:38:23;;;;;;;14.03;8.13;;;;;;;-4.87;100.00;101036.97;5112423;28;21000;-67
2023/12/04 01:40:49;;;;;;;13.40;8.17;;;;;;;-4.86;100.00;101037.81;5113820;28;20084;-65
2023/12/04 01:43:14;;;;;;;13.47;9.00;;;;;;;-4.99;100.00;101014.03;5113943;28;20042;-65
2023/12/04 01:45:41;;;;;;;15.07;8.87;;;;;;;-4.82;100.00;101044.56;5114729;28;20462;-65
2023/12/04 01:48:07;;;;;;;15.10;9.93;;;;;;;-4.94;100.00;101030.28;5115234;28;20032;-66
2023/12/04 01:50:35;;;;;;;15.10;9.85;;;;;;;-5.02;100.00;101021.94;5115884;28;20181;-65
2023/12/04 01:53:01;;;;;;;14.40;9.32;;;;;;;-5.00;100.00;101020.13;5115470;28;20035;-65
2023/12/04 01:55:29;;;;;;;16.88;9.73;;;;;;;-5.02;100.00;101015.00;5114053;28;20043;-64
2023/12/04 01:57:56;;;;;;;14.80;9.05;;;;;;;-4.80;100.00;101043.59;5114002;28;20065;-65
2023/12/04 02:00:21;;;;;;;15.10;10.10;;;;;;;-5.41;100.00;100947.25;5113731;28;20043;-66
2023/12/04 02:02:47;;;;;;;12.87;9.70;;;;;;;-4.93;100.00;101026.78;5112128;28;20402;-64
2023/12/04 02:05:14;;;;;;;15.87;9.73;;;;;;;-4.88;100.00;101029.22;5113090;28;20052;-66
2023/12/04 02:07:43;;;;;;;13.38;8.50;;;;;;;-4.79;100.00;101045.31;5113783;28;20387;-64
2023/12/04 02:10:09;;;;;;;16.52;8.35;;;;;;;-4.80;100.00;101047.97;5113148;28;20040;-65
2023/12/04 02:12:35;;;;;;;19.27;9.95;;;;;;;-4.87;100.00;101042.16;5112876;28;20395;-64
2023/12/04 02:15:02;;;;;;;13.60;8.40;;;;;;;-4.85;100.00;101045.53;5113906;28;20081;-65
2023/12/04 02:17:33;;;;;;;17.42;10.70;;;;;;;-4.79;100.00;101047.91;5112153;28;20479;-64
2023/12/04 02:19:59;;;;;;;15.68;9.25;;;;;;;-4.82;100.00;101040.22;5112956;28;20039;-66
2023/12/04 02:22:24;;;;;;;17.60;10.50;;;;;;;-4.85;100.00;101027.34;5112960;28;20036;-65
2023/12/04 02:24:50;;;;;;;16.80;9.83;;;;;;;-4.81;100.00;101036.72;5112865;28;20033;-65
2023/12/04 02:27:20;;;;;;;15.17;8.60;;;;;;;-4.85;100.00;101031.72;5113105;28;20066;-65
2023/12/04 02:29:51;;;;;;;13.23;8.80;;;;;;;-5.03;100.00;101009.84;5113238;28;20035;-66
2023/12/04 02:32:19;;;;;;;12.02;8.32;;;;;;;-4.84;100.00;101043.78;5113187;28;20105;-64
2023/12/04 02:34:46;;;;;;;13.85;8.38;;;;;;;-4.84;100.00;101038.59;5113201;28;20027;-65
2023/12/04 02:37:14;;;;;;;15.52;8.93;;;;;;;-4.78;100.00;101040.94;5111831;28;20039;-65
2023/12/04 02:39:40;;;;;;;13.10;9.13;;;;;;;-4.81;100.00;101041.06;5112894;28;20027;-65
2023/12/04 02:42:06;;;;;;;16.10;9.40;;;;;;;-4.82;100.00;101035.03;5112684;28;20051;-65
2023/12/04 02:44:32;;;;;;;16.27;9.67;;;;;;;-4.80;100.00;101048.81;5112537;28;20046;-65
2023/12/04 02:46:57;;;;;;;14.17;8.37;;;;;;;-4.81;100.00;101052.31;5112787;28;20039;-65
2023/12/04 02:49:23;;;;;;;17.60;10.40;;;;;;;-4.98;100.00;101018.31;5112379;28;20452;-66
2023/12/04 02:51:49;;;;;;;13.07;8.27;;;;;;;-4.75;100.00;101052.06;5112450;28;20508;-65
2023/12/04 02:54:14;;;;;;;12.53;8.73;;;;;;;-4.72;100.00;101046.75;5112107;28;20035;-65
2023/12/04 02:56:40;;;;;;;13.00;8.10;;;;;;;-4.86;100.00;101025.66;5112208;28;20038;-65
2023/12/04 02:59:05;;;;;;;14.97;9.33;;;;;;;-4.81;100.00;101028.94;5111943;28;20027;-66
2023/12/04 03:01:31;;;;;;;20.10;8.90;;;;;;;-4.81;100.00;101038.47;5112027;28;20123;-65
2023/12/04 03:03:56;;;;;;;15.43;8.60;;;;;;;-4.94;100.00;101019.03;5112754;28;20056;-65
2023/12/04 03:06:22;;;;;;;17.33;9.13;;;;;;;-4.87;100.00;101046.50;5112368;28;20047;-67
2023/12/04 03:08:48;;;;;;;16.80;9.60;;;;;;;-5.12;100.00;101010.22;5112115;28;20038;-65
2023/12/04 03:11:13;;;;;;;20.55;9.07;;;;;;;-5.09;100.00;101023.94;5112140;28;20573;-66
2023/12/04 03:13:39;;;;;;;15.30;8.97;;;;;;;-5.03;100.00;101028.03;5111984;28;20048;-65
2023/12/04 03:16:05;;;;;;;14.07;8.63;;;;;;;-5.25;100.00;100990.78;5112507;28;20080;-65
2023/12/04 03:18:30;;;;;;;15.97;8.47;;;;;;;-4.90;100.00;101052.66;5112841;28;20067;-66
2023/12/04 03:20:56;;;;;;;17.03;9.30;;;;;;;-4.99;100.00;101047.78;5113033;28;20046;-64
2023/12/04 03:23:21;;;;;;;16.80;10.30;;;;;;;-5.15;100.00;101021.56;5112661;28;20566;-64
2023/12/04 03:25:47;;;;;;;12.60;9.10;;;;;;;-5.09;100.00;101028.28;5111675;28;20498;-65
2023/12/04 03:28:15;;;;;;;13.73;8.00;;;;;;;-5.38;100.00;100973.06;5112664;28;20063;-65
2023/12/04 03:30:45;;;;;;;17.40;9.88;;;;;;;-5.06;100.00;101018.63;5111468;28;20039;-65
2023/12/04 03:33:10;;;;;;;15.85;9.93;;;;;;;-5.12;100.00;101015.41;5112106;28;20039;-65
2023/12/04 03:35:36;;;;;;;15.63;9.13;;;;;;;-5.00;100.00;101040.91;5111943;28;20046;-64
2023/12/04 03:38:02;;;;;;;11.90;7.17;;;;;;;-4.84;100.00;101052.44;5112421;28;20027;-64
2023/12/04 03:40:27;;;;;;;12.77;7.67;;;;;;;-5.01;100.00;101021.03;5112323;28;20547;-65
2023/12/04 03:42:53;;;;;;;10.73;7.30;;;;;;;-5.23;100.00;100981.19;5112562;28;20031;-64
2023/12/04 03:45:18;;;;;;;13.10;8.60;;;;;;;-4.86;100.00;101058.59;5112298;28;20942;-65
2023/12/04 03:47:44;;;;;;;16.57;8.60;;;;;;;-4.94;100.00;101045.88;5110600;28;20745;-67
2023/12/04 03:50:09;;;;;;;16.77;9.07;;;;;;;-4.96;100.00;101052.03;5116641;28;20039;-64
2023/12/04 03:52:35;;;;;;;20.07;10.30;;;;;;;-5.00;100.00;101048.69;5116355;28;20087;-65
2023/12/04 03:55:01;;;;;;;15.53;7.93;;;;;;;-4.98;100.00;101054.69;5115772;28;20031;-65
2023/12/04 03:57:26;;;;;;;17.57;9.83;;;;;;;-5.15;100.00;101036.28;5115823;28;20031;-64
2023/12/04 03:59:52;;;;;;;20.10;10.00;;;;;;;-4.98;100.00;101059.88;5115756;28;20036;-66
2023/12/04 04:02:17;;;;;;;14.83;8.00;;;;;;;-4.94;100.00;101053.66;5115633;28;20495;-66
2023/12/04 04:04:43;;;;;;;12.37;8.47;;;;;;;-5.00;100.00;101046.94;5115525;28;20055;-65
2023/12/04 04:07:09;;;;;;;15.53;9.03;;;;;;;-5.06;100.00;101039.38;5114532;28;20036;-65
2023/12/04 04:09:34;;;;;;;17.37;8.57;;;;;;;-5.08;100.00;101042.94;5115256;28;20071;-68
2023/12/04 04:12:00;;;;;;;18.77;8.60;;;;;;;-4.99;100.00;101058.19;5115252;28;20080;-64
2023/12/04 04:14:26;;;;;;;15.00;8.37;;;;;;;-4.97;100.00;101066.75;5116195;28;20050;-65
2023/12/04 04:16:51;;;;;;;14.70;8.57;;;;;;;-5.06;100.00;101051.53;5115470;28;20154;-64
2023/12/04 04:19:17;;;;;;;14.10;7.60;;;;;;;-4.96;100.00;101057.22;5115629;28;20047;-65
2023/12/04 04:21:42;;;;;;;15.87;9.00;;;;;;;-4.97;100.00;101056.38;5115485;28;20040;-65
2023/12/04 04:24:08;;;;;;;13.70;8.47;;;;;;;-4.85;100.00;101065.47;5114932;28;20054;-67
2023/12/04 04:26:33;;;;;;;13.93;8.90;;;;;;;-4.95;100.00;101054.56;5113811;28;20118;-67
2023/12/04 04:28:59;;;;;;;13.03;7.57;;;;;;;-5.02;100.00;101053.09;5115186;28;20479;-65
2023/12/04 04:31:25;;;;;;;9.47;6.83;;;;;;;-5.07;100.00;101047.25;5114801;28;20122;-65
2023/12/04 04:33:50;;;;;;;14.80;8.80;;;;;;;-4.94;100.00;101071.00;5114936;28;20032;-65
2023/12/04 04:36:16;;;;;;;14.13;8.60;;;;;;;-4.98;100.00;101075.47;5115313;28;20032;-64
2023/12/04 04:38:41;;;;;;;13.23;8.13;;;;;;;-4.96;100.00;101076.25;5115205;28;20040;-64
2023/12/04 04:41:07;;;;;;;17.17;7.80;;;;;;;-5.07;100.00;101049.84;5114723;28;20032;-64
2023/12/04 04:43:33;;;;;;;12.83;8.27;;;;;;;-4.93;100.00;101070.09;5114637;28;20449;-65
2023/12/04 04:45:58;;;;;;;12.93;9.37;;;;;;;-4.87;100.00;101078.53;5114887;28;20403;-66
2023/12/04 04:48:24;;;;;;;15.90;9.43;;;;;;;-4.94;100.00;101064.03;5114724;28;20036;-66
2023/12/04 04:50:49;;;;;;;13.03;8.40;;;;;;;-5.16;100.00;101045.00;5114822;28;20088;-66
2023/12/04 04:53:15;;;;;;;13.63;8.97;;;;;;;-5.10;100.00;101075.91;5115325;28;20028;-65
2023/12/04 04:55:41;;;;;;;14.10;8.30;;;;;;;-5.19;100.00;101051.16;5114496;28;20424;-64
2023/12/04 04:58:06;;;;;;;17.37;11.00;;;;;;;-5.49;100.00;101005.50;5114794;28;20388;-65
2023/12/04 05:00:32;;;;;;;15.27;11.00;;;;;;;-5.03;100.00;101062.66;5112874;28;20093;-66
2023/12/04 05:02:58;;;;;;;16.33;9.37;;;;;;;-4.96;100.00;101058.06;5114724;28;20031;-65
2023/12/04 05:05:26;;;;;;;16.40;10.27;;;;;;;-4.90;100.00;101057.88;5115039;28;20040;-64
2023/12/04 05:07:51;;;;;;;13.90;8.85;;;;;;;-4.97;100.00;101043.38;5114817;28;20075;-67
2023/12/04 05:10:17;;;;;;;14.40;8.27;;;;;;;-4.81;100.00;101065.31;5114488;28;20555;-65
2023/12/04 05:12:43;;;;;;;18.50;9.45;;;;;;;-4.82;100.00;101068.81;5114359;28;20032;-65
2023/12/04 05:15:09;;;;;;;14.53;10.37;;;;;;;-4.92;100.00;101048.41;5113386;28;20078;-64
2023/12/04 05:17:35;;;;;;;15.37;8.80;;;;;;;-4.86;100.00;101059.44;5114336;28;20172;-67
2023/12/04 05:20:00;;;;;;;23.03;10.93;;;;;;;-4.73;100.00;101076.25;5114522;28;20038;-65
2023/12/04 05:22:26;;;;;;;14.43;8.70;;;;;;;-4.84;100.00;101052.44;5114347;27;20087;-66
2023/12/04 05:24:51;;;;;;;14.67;8.47;;;;;;;-5.11;100.00;101015.34;5114616;28;20054;-65
2023/12/04 05:27:17;;;;;;;16.47;9.10;;;;;;;-4.79;100.00;101071.28;5114103;28;20371;-65
2023/12/04 05:29:42;;;;;;;12.07;8.63;;;;;;;-4.82;100.00;101071.41;5114208;28;20093;-64
2023/12/04 05:32:08;;;;;;;13.13;8.43;;;;;;;-4.78;100.00;101072.97;5113325;28;20483;-66
2023/12/04 05:34:34;;;;;;;14.70;8.97;;;;;;;-4.91;100.00;101045.78;5114724;28;20165;-65
2023/12/04 05:36:59;;;;;;;13.87;8.93;;;;;;;-4.91;100.00;101045.78;5113959;28;20031;-64
2023/12/04 05:39:25;;;;;;;12.93;8.70;;;;;;;-4.83;100.00;101067.13;5113626;28;20138;-64
2023/12/04 05:41:51;;;;;;;18.63;10.10;;;;;;;-4.91;100.00;101070.91;5114416;28;20035;-66
2023/12/04 05:44:16;;;;;;;15.70;9.67;;;;;;;-4.89;100.00;101074.28;5113432;28;20036;-65
2023/12/04 05:46:42;;;;;;;13.07;9.13;;;;;;;-5.55;100.00;100979.78;5112317;28;20513;-66
2023/12/04 05:49:08;;;;;;;18.00;11.03;;;;;;;-4.88;100.00;101065.59;5113079;28;20031;-65
2023/12/04 05:51:33;;;;;;;15.17;9.43;;;;;;;-4.88;100.00;101066.44;5113181;28;20036;-65
2023/12/04 05:53:59;;;;;;;16.37;9.27;;;;;;;-4.84;100.00;101067.16;5113070;28;20067;-66
2023/12/04 05:56:24;;;;;;;15.80;8.60;;;;;;;-5.19;100.00;101029.53;5113370;27;20490;-65
2023/12/04 05:58:50;;;;;;;16.57;9.50;;;;;;;-5.07;100.00;101068.00;5113357;28;20437;-66
2023/12/04 06:01:16;;;;;;;18.77;8.90;;;;;;;-5.20;100.00;101065.03;5113075;28;20444;-65
2023/12/04 06:03:42;;;;;;;16.97;9.30;;;;;;;-5.04;100.00;101070.50;5112924;28;20063;-66
2023/12/04 06:06:08;;;;;;;15.18;10.57;;;;;;;-5.45;100.00;100996.72;5112848;28;20502;-65
2023/12/04 06:08:34;;;;;;;15.95;8.65;;;;;;;-4.96;100.00;101072.81;5112812;27;20043;-65
2023/12/04 06:10:59;;;;;;;13.07;9.37;;;;;;;-5.46;100.00;100995.88;5113177;28;20068;-68
2023/12/04 06:13:25;;;;;;;16.13;8.77;;;;;;;-5.12;100.00;101062.16;5122772;28;20039;-66
2023/12/04 06:15:50;;;;;;;14.50;9.17;;;;;;;-4.97;100.00;101087.53;5121761;28;20036;-66
2023/12/04 06:18:16;;;;;;;13.17;8.67;;;;;;;-5.00;100.00;101072.06;5112839;28;20441;-63
2023/12/04 06:20:41;;;;;;;12.67;8.47;;;;;;;-4.90;100.00;101078.66;5112562;28;20118;-64
2023/12/04 06:23:07;;;;;;;14.07;8.70;;;;;;;-4.89;100.00;101080.34;5112522;28;20065;-65
2023/12/04 06:25:33;;;;;;;15.33;8.70;;;;;;;-5.04;100.00;101060.09;5114243;28;20031;-65
2023/12/04 06:27:59;;;;;;;13.50;9.10;;;;;;;-5.03;100.00;101067.00;5133672;28;20140;-64
2023/12/04 06:30:25;;;;;;;16.50;9.40;;;;;;;-5.01;100.00;101078.16;5135210;28;20098;-66
2023/12/04 06:32:51;;;;;;;15.15;9.65;;;;;;;-5.03;100.00;101087.78;5134763;28;20047;-66
2023/12/04 06:35:17;;;;;;;29.07;13.10;;;;;;;-5.10;100.00;101081.13;5132632;28;20180;-65
2023/12/04 06:37:45;;;;;;;21.98;11.18;;;;;;;-5.06;100.00;101087.88;5128238;28;20031;-63
2023/12/04 06:40:11;;;;;;;16.40;9.55;;;;;;;-5.08;100.00;101084.50;5127685;28;20068;-65
2023/12/04 06:42:37;;;;;;;19.58;10.25;;;;;;;-5.01;100.00;101101.53;5128293;28;20036;-64
2023/12/04 06:45:04;;;;;;;15.88;9.93;;;;;;;-5.00;100.00;101092.84;5127889;28;20048;-66
2023/12/04 06:47:34;;;;;;;17.13;9.63;;;;;;;-5.06;100.00;101098.28;5122759;28;20035;-64
2023/12/04 06:50:00;;;;;;;17.23;10.63;;;;;;;-5.09;100.00;101085.41;5127371;28;20035;-65
2023/12/04 06:52:25;;;;;;;14.50;9.00;;;;;;;-4.90;100.00;101102.03;5127655;28;20031;-66
2023/12/04 06:54:51;;;;;;;16.10;9.60;;;;;;;-5.17;100.00;101048.50;5122629;28;20031;-66
2023/12/04 06:57:16;;;;;;;19.03;10.13;;;;;;;-4.89;100.00;101085.53;5112540;28;20601;-65
2023/12/04 06:59:42;;;;;;;15.97;9.97;;;;;;;-4.96;100.00;101073.66;5112142;28;20061;-67
2023/12/04 07:02:08;;;;;;;18.57;11.03;;;;;;;-4.74;100.00;101097.94;5111900;28;20031;-65
2023/12/04 07:04:34;;;;;;;15.13;9.20;;;;;;;-4.74;100.00;101086.69;5112043;28;20055;-66
2023/12/04 07:07:04;;;;;;;16.37;9.73;;;;;;;-4.73;100.00;101078.84;5111675;28;20067;-66
2023/12/04 07:09:34;;;;;;;14.93;9.05;;;;;;;-4.59;100.00;101098.28;5111933;28;20300;-65
2023/12/04 07:12:00;;;;;;;17.50;10.18;;;;;;;-4.61;100.00;101094.91;5110622;28;20036;-65
2023/12/04 07:14:26;;;;;;;20.48;10.02;;;;;;;-4.72;100.00;101079.69;5111949;28;20058;-65
2023/12/04 07:16:52;;;;;;;14.93;9.17;;;;;;;-4.73;100.00;101084.03;5110445;28;20514;-66
2023/12/04 07:19:17;;;;;;;12.50;8.57;;;;;;;-4.75;100.00;101091.03;5111704;28;20115;-66
2023/12/04 07:21:43;;;;;;;13.80;8.87;;;;;;;-4.63;100.00;101102.72;5111841;28;20551;-65
2023/12/04 07:24:08;;;;;;;14.20;8.20;;;;;;;-4.72;100.00;101083.13;5111995;28;20052;-65
2023/12/04 07:26:35;;;;;;;12.43;9.03;;;;;;;-4.57;100.00;101112.06;5111858;28;20040;-67
2023/12/04 07:29:01;;;;;;;12.52;7.93;;;;;;;-4.58;100.00;101115.56;5111714;28;20039;-65
2023/12/04 07:31:27;;;;;;;11.20;7.20;;;;;;;-4.70;100.00;101091.72;5111408;28;20042;-65
2023/12/04 07:33:56;;;;;;;12.07;7.90;;;;;;;-4.61;100.00;101102.69;5111423;28;20043;-65
2023/12/04 07:36:23;;;;;;;15.40;8.85;;;;;;;-4.47;100.00;101121.19;5111556;28;20436;-67
2023/12/04 07:38:50;;;;;;;11.05;7.45;;;;;;;-4.51;100.00;101117.03;5111632;28;20061;-64
2023/12/04 07:41:17;;;;;;;15.27;9.48;;;;;;;-4.46;100.00;101120.28;5111562;28;20032;-65
2023/12/04 07:43:43;;;;;;;13.77;9.23;;;;;;;-4.47;99.85;101124.63;5112026;28;20046;-64
2023/12/04 07:46:11;;;;;;;11.73;7.20;;;;;;;-4.48;99.25;101122.94;5112017;28;20074;-68
2023/12/04 07:48:37;;;;;;;11.48;7.55;;;;;;;-4.47;98.75;101127.25;5111471;28;20028;-65
2023/12/04 07:51:03;;;;;;;20.47;10.07;;;;;;;-4.45;98.87;101132.38;5111619;28;20062;-66
2023/12/04 07:53:29;;;;;;;14.93;7.97;;;;;;;-4.54;98.49;101111.94;5111560;28;20108;-64
2023/12/04 07:55:55;;;;;;;11.67;7.43;;;;;;;-4.62;98.21;101104.44;5110423;28;20123;-66
2023/12/04 07:58:21;;;;;;;14.20;8.73;;;;;;;-5.04;98.64;101018.56;5110048;28;20059;-66
2023/12/04 08:00:47;;;;;;;14.35;8.02;;;;;;;-4.59;98.42;101098.28;5111212;28;20035;-65
2023/12/04 08:03:15;;;;;;;16.70;9.13;;;;;;;-4.42;98.37;101137.47;5111015;28;20522;-65
2023/12/04 08:05:40;;;;;;;17.65;8.85;;;;;;;-4.42;97.98;101135.72;5111440;28;20048;-66
2023/12/04 08:08:06;;;;;;;13.93;8.00;;;;;;;-4.41;98.63;101133.94;5111585;28;20582;-65
2023/12/04 08:10:31;;;;;;;14.47;7.77;;;;;;;-4.50;98.16;101118.72;5111388;28;20048;-66
2023/12/04 08:12:58;;;;;;;13.87;8.00;;;;;;;-4.41;98.59;101129.59;5111114;28;20395;-65
2023/12/04 08:15:24;;;;;;;11.20;7.60;;;;;;;-4.50;98.16;101113.53;5111266;28;20028;-67
2023/12/04 08:17:50;;;;;;;15.17;8.10;;;;;;;-4.43;98.17;101130.56;5109727;28;20400;-65
2023/12/04 08:20:16;;;;;;;12.68;8.68;;;;;;;-4.47;97.47;101134.19;5111016;28;20036;-65
2023/12/04 08:22:44;;;;;;;18.07;8.87;;;;;;;-4.49;97.96;101146.41;5111101;28;20035;-65
2023/12/04 08:25:12;;;;;;;16.00;8.70;;;;;;;-4.59;98.25;101124.28;5111015;28;20046;-65
2023/12/04 08:27:37;;;;;;;12.18;8.02;;;;;;;-4.65;97.74;101119.28;5110686;28;20047;-65
2023/12/04 08:30:07;;;;;;;13.00;8.90;;;;;;;-4.63;98.11;101118.31;5109526;28;20079;-64
2023/12/04 08:32:32;;;;;;;13.82;9.05;;;;;;;-4.58;97.79;101128.56;5111062;28;20028;-65
2023/12/04 08:34:58;;;;;;;12.87;8.47;;;;;;;-4.43;98.41;101151.38;5109997;28;20551;-65
2023/12/04 08:37:23;;;;;;;14.80;8.37;;;;;;;-4.44;97.18;101147.91;5114514;28;20046;-66
2023/12/04 08:39:49;;;;;;;16.20;8.90;;;;;;;-4.59;97.51;101119.06;5114377;28;20035;-65
2023/12/04 08:42:14;;;;;;;12.60;8.73;;;;;;;-4.50;97.32;101137.75;5114599;28;20122;-65
2023/12/04 08:44:40;;;;;;;16.90;8.50;;;;;;;-4.54;97.38;101137.94;5114213;28;20039;-67
2023/12/04 08:47:06;;;;;;;17.10;9.33;;;;;;;-4.43;98.23;101156.56;5114112;28;20057;-65
2023/12/04 08:49:32;;;;;;;11.77;8.97;;;;;;;-4.46;98.34;101148.88;5114494;28;20544;-69
2023/12/04 08:51:58;;;;;;;14.57;8.80;;;;;;;-4.43;98.68;101151.38;5114446;28;20036;-65
2023/12/04 08:54:24;;;;;;;11.67;8.23;;;;;;;-4.46;97.73;101147.13;5113067;28;20058;-64
2023/12/04 08:56:50;;;;;;;12.30;7.88;;;;;;;-4.42;97.53;101133.09;5114547;27;20038;-67
2023/12/04 08:59:16;;;;;;;16.47;9.53;;;;;;;-4.24;98.01;101151.53;5114616;28;20409;-66
2023/12/04 09:01:43;;;;;;;18.80;9.80;;;;;;;-4.51;97.16;101109.22;5114383;28;20035;-66
2023/12/04 09:04:10;;;;;;;16.45;9.68;;;;;;;-4.48;96.63;101096.09;5113807;28;20146;-64
2023/12/04 09:06:36;;;;;;;13.70;9.02;;;;;;;-4.42;97.11;101111.47;5113938;28;20048;-66
2023/12/04 09:09:02;;;;;;;18.63;9.13;;;;;;;-4.29;97.57;101143.91;5114126;28;20037;-66
2023/12/04 09:11:28;;;;;;;21.23;10.18;;;;;;;-4.27;97.20;101146.44;5114053;28;20308;-64
2023/12/04 09:13:54;;;;;;;18.10;10.50;;;;;;;-4.35;97.34;101133.72;5114024;28;20417;-65
2023/12/04 09:16:20;;;;;;;15.27;9.97;;;;;;;-4.29;97.02;101149.09;5114552;28;20122;-65
2023/12/04 09:18:46;;;;;;;17.87;9.97;;;;;;;-4.24;96.47;101154.97;5113949;28;20031;-66
2023/12/04 09:21:12;;;;;;;16.50;9.52;;;;;;;-4.22;96.57;101155.75;5114037;28;20425;-66
2023/12/04 09:23:38;;;;;;;14.57;9.30;;;;;;;-4.30;96.31;101131.81;5113754;28;20076;-67
2023/12/04 09:26:04;;;;;;;17.73;9.70;;;;;;;-4.19;96.20;101160.00;5112471;28;20165;-65
2023/12/04 09:28:29;;;;;;;17.42;9.90;;;;;;;-4.21;96.29;101162.66;5113348;28;20060;-65
2023/12/04 09:30:55;;;;;;;23.03;10.00;;;;;;;-4.22;95.98;101158.34;5113351;28;20082;-67
2023/12/04 09:33:20;;;;;;;23.00;9.47;;;;;;;-4.29;96.45;101143.91;5113733;28;20134;-66
2023/12/04 09:35:46;;;;;;;19.70;10.03;;;;;;;-4.25;96.21;101155.03;5113204;28;20384;-65
2023/12/04 09:38:12;;;;;;;17.77;9.30;;;;;;;-4.36;95.92;101147.63;5113423;28;20050;-67
2023/12/04 09:40:37;;;;;;;18.90;9.93;;;;;;;-4.54;96.04;101124.94;5113325;27;20027;-65
2023/12/04 09:43:05;;;;;;;18.80;10.83;;;;;;;-4.81;96.75;101124.22;5113252;28;20044;-66
2023/12/04 09:45:32;;;;;;;17.83;9.82;;;;;;;-5.00;97.88;101124.03;5113149;28;20469;-64
2023/12/04 09:47:58;;;;;;;13.32;9.02;;;;;;;-4.98;98.79;101132.59;5114088;28;20480;-67
2023/12/04 09:50:24;;;;;;;16.52;9.70;;;;;;;-4.81;99.04;101166.63;5112984;28;20402;-65
2023/12/04 09:52:50;;;;;;;15.43;9.57;;;;;;;-4.91;98.93;101144.50;5112710;28;20035;-63
2023/12/04 09:55:17;;;;;;;13.82;9.55;;;;;;;-4.83;98.66;101141.59;5113843;28;20046;-65
2023/12/04 09:57:45;;;;;;;16.60;10.88;;;;;;;-4.61;99.06;101165.06;5113356;28;20126;-66
2023/12/04 10:00:13;;;;;;;16.90;10.60;;;;;;;-4.64;97.72;101157.34;5112937;28;20059;-65
2023/12/04 10:02:42;;;;;;;23.20;12.88;;;;;;;-4.72;98.83;101140.31;5113136;28;20031;-66
2023/12/04 10:05:09;;;;;;;15.85;9.90;;;;;;;-4.81;98.53;101132.00;5112841;28;20116;-64
2023/12/04 10:07:38;;;;;;;17.85;10.45;;;;;;;-4.65;98.25;101166.91;5112720;28;20380;-65
2023/12/04 10:10:08;;;;;;;16.42;11.02;;;;;;;-4.81;98.84;101142.41;5112345;28;20379;-65
2023/12/04 10:12:35;;;;;;;18.08;11.27;;;;;;;-4.83;98.98;101142.47;5112638;28;20043;-65
2023/12/04 10:15:07;;;;;;;16.55;10.25;;;;;;;-4.70;98.06;101155.84;5112650;28;20032;-66
2023/12/04 10:17:35;;;;;;;21.58;13.93;;;;;;;-4.65;98.29;101174.69;5112667;28;20039;-66
2023/12/04 10:20:17;;;;;;;18.63;12.07;;;;;;;-4.72;98.74;101168.03;5112872;28;20482;-64
2023/12/04 10:22:55;;;;;;;17.95;10.20;;;;;;;-5.26;98.49;101098.97;5112333;28;20039;-65
2023/12/04 10:25:20;;;;;;;21.13;10.70;;;;;;;-4.97;99.58;101155.06;5112664;28;20035;-65
2023/12/04 10:27:47;;;;;;;20.63;12.07;;;;;;;-4.96;100.00;101151.56;5112531;28;20042;-65
2023/12/04 10:30:27;;;;;;;23.52;11.57;;;;;;;-4.75;100.00;101175.94;5112488;28;20162;-65
2023/12/04 10:33:00;;;;;;;25.08;11.60;;;;;;;-4.75;100.00;101163.81;5112358;28;20058;-66
2023/12/04 10:35:33;;;;;;;17.25;11.68;;;;;;;-4.61;100.00;101183.25;5112694;28;20477;-66
2023/12/04 10:37:59;;;;;;;18.55;10.75;;;;;;;-4.77;99.30;101152.63;5112806;28;20088;-67
2023/12/04 10:40:26;;;;;;;20.52;11.05;;;;;;;-4.53;99.27;101186.41;5112243;27;20039;-66
2023/12/04 10:43:15;;;;;;;21.15;11.13;;;;;;;-4.44;99.69;101176.53;5112344;28;20039;-65
2023/12/04 10:45:42;;;;;;;16.58;10.68;;;;;;;-4.43;99.65;101159.16;5111838;28;20023;-66
2023/12/04 10:48:12;;;;;;;16.38;10.15;;;;;;;-4.22;98.03;101184.38;5112038;28;20039;-66
2023/12/04 10:50:40;;;;;;;16.98;11.48;;;;;;;-4.25;98.46;101176.69;5111948;28;20168;-66
2023/12/04 10:53:12;;;;;;;19.00;11.07;;;;;;;-4.08;97.97;101183.81;5112019;28;20538;-66
2023/12/04 10:55:40;;;;;;;18.10;10.98;;;;;;;-5.26;97.27;100979.56;5112014;28;20063;-66
2023/12/04 10:58:10;;;;;;;14.55;10.05;;;;;;;-4.06;97.03;101169.84;5111191;28;20122;-65
2023/12/04 11:00:40;;;;;;;19.05;10.10;;;;;;;-3.98;97.81;101177.38;5111764;28;20398;-66
2023/12/04 11:03:13;;;;;;;16.10;10.73;;;;;;;-4.41;97.13;101102.75;5112236;28;20098;-64
2023/12/04 11:05:41;;;;;;;19.38;11.30;;;;;;;-4.07;97.51;101168.16;5112197;28;20043;-66